Time;durP1;ratioP1;P1;durP2;ratioP2;P2;SDS_P1;SDS_P2;PMS_P1;PMS_P2;Temp;Humidity;BMP_temperature;BMP_pressure;BME280_temperature;BME280_humidity;BME280_pressure;Samples;Min_cycle;Max_cycle;Signal;HPM_P1;HPM_P2
2021/06/06 00:02:43;;;;;;;12.77;5.47;;;;;;;;;;6177405;28;20053;-68
2021/06/06 00:05:48;;;;;;;10.40;5.38;;;;;;;;;;6177794;28;20474;-68
2021/06/06 00:08:52;;;;;;;10.13;5.55;;;;;;;;;;6177191;28;20065;-72
2021/06/06 00:11:55;;;;;;;228.65;136.90;;;;;;;;;;6176823;28;20385;-70
2021/06/06 00:15:03;;;;;;;18.10;11.35;;;;;;;;;;6176474;28;20074;-70
2021/06/06 00:18:04;;;;;;;13.30;6.70;;;;;;;;;;6176374;28;20133;-70
2021/06/06 00:21:07;;;;;;;40.88;23.23;;;;;;;;;;6176880;28;20057;-70
2021/06/06 00:24:14;;;;;;;16.77;6.43;;;;;;;;;;6176780;28;20406;-69
2021/06/06 00:27:18;;;;;;;9.68;6.38;;;;;;;;;;6176905;28;20162;-69
2021/06/06 00:30:20;;;;;;;17.15;7.38;;;;;;;;;;6176853;28;20054;-68
2021/06/06 00:33:26;;;;;;;14.25;6.38;;;;;;;;;;6176584;28;20109;-68
2021/06/06 00:36:29;;;;;;;11.45;5.60;;;;;;;;;;6176631;28;20139;-68
2021/06/06 00:39:34;;;;;;;;;;;;;;;;;;6177460;28;20058;-68
2021/06/06 00:42:41;;;;;;;11.27;6.25;;;;;;;;;;6194816;28;19929;-69
2021/06/06 00:45:42;;;;;;;15.60;6.40;;;;;;;;;;6200552;28;20043;-68
2021/06/06 00:48:51;;;;;;;10.73;5.88;;;;;;;;;;6200340;28;20053;-68
2021/06/06 04:06:52;;;;;;;5.18;2.22;;;;;;;;;;6194252;28;20054;-65
2021/06/06 04:09:53;;;;;;;2.88;2.20;;;;;;;;;;6201783;28;20046;-65
2021/06/06 04:12:54;;;;;;;3.55;2.35;;;;;;;;;;6201241;28;20101;-66
2021/06/06 04:15:58;;;;;;;4.10;2.20;;;;;;;;;;6202428;28;20074;-65
2021/06/06 04:18:59;;;;;;;2.97;2.00;;;;;;;;;;6201254;28;20081;-65
2021/06/06 04:22:08;;;;;;;3.97;2.60;;;;;;;;;;6201634;28;20061;-65
2021/06/06 04:25:11;;;;;;;5.57;2.30;;;;;;;;;;6200544;28;20057;-65
2021/06/06 04:28:12;;;;;;;3.72;2.10;;;;;;;;;;6201828;28;20050;-66
2021/06/06 04:31:14;;;;;;;7.32;2.40;;;;;;;;;;6196681;28;20408;-65
2021/06/06 04:34:15;;;;;;;4.07;2.00;;;;;;;;;;6209476;28;20089;-65
2021/06/06 04:37:19;;;;;;;6.35;2.00;;;;;;;;;;6200047;28;20038;-65
2021/06/06 04:40:20;;;;;;;6.28;2.33;;;;;;;;;;6199751;28;20086;-66
2021/06/06 04:43:22;;;;;;;4.55;2.33;;;;;;;;;;6201821;28;20092;-65
2021/06/06 04:46:23;;;;;;;3.90;2.28;;;;;;;;;;6200206;28;20075;-66
2021/06/06 04:49:25;;;;;;;4.47;2.38;;;;;;;;;;6200649;28;20069;-65
2021/06/06 04:52:35;;;;;;;5.43;2.33;;;;;;;;;;6200106;28;20133;-66
2021/06/06 04:55:37;;;;;;;2.80;2.00;;;;;;;;;;6200094;28;20069;-65
2021/06/06 04:58:38;;;;;;;5.00;3.08;;;;;;;;;;6200219;28;20054;-66
2021/06/06 05:01:39;;;;;;;4.90;2.78;;;;;;;;;;6200717;28;20047;-65
2021/06/06 05:04:41;;;;;;;7.97;3.20;;;;;;;;;;6199652;28;20053;-66
2021/06/06 05:07:44;;;;;;;6.32;3.30;;;;;;;;;;6200585;28;20050;-65
2021/06/06 05:10:46;;;;;;;5.85;3.42;;;;;;;;;;6204098;28;20121;-66
2021/06/06 05:13:47;;;;;;;5.47;3.53;;;;;;;;;;6200070;28;20050;-65
2021/06/06 05:16:48;;;;;;;5.78;3.85;;;;;;;;;;6199482;28;20062;-66
2021/06/06 05:19:49;;;;;;;5.82;3.80;;;;;;;;;;6199713;28;20086;-65
2021/06/06 05:22:52;;;;;;;7.55;4.25;;;;;;;;;;6199236;28;20069;-65
2021/06/06 05:25:53;;;;;;;5.35;4.07;;;;;;;;;;6199775;28;20182;-65
2021/06/06 05:28:54;;;;;;;7.32;4.57;;;;;;;;;;6190840;28;20057;-66
2021/06/06 05:31:56;;;;;;;5.50;4.40;;;;;;;;;;6212636;28;20466;-65
2021/06/06 05:34:57;;;;;;;5.30;4.30;;;;;;;;;;6199517;28;20054;-65
2021/06/06 05:38:00;;;;;;;7.50;4.43;;;;;;;;;;6159985;28;20106;-65
2021/06/06 05:41:09;;;;;;;6.30;4.03;;;;;;;;;;6151376;28;20407;-65
2021/06/06 05:44:10;;;;;;;4.57;3.60;;;;;;;;;;6151318;28;20051;-65
2021/06/06 05:47:11;;;;;;;5.00;3.78;;;;;;;;;;6151144;28;20070;-66
2021/06/06 05:50:14;;;;;;;6.63;3.50;;;;;;;;;;6152023;28;20077;-66
2021/06/06 05:53:17;;;;;;;6.43;3.30;;;;;;;;;;6151309;28;20158;-66
2021/06/06 05:56:18;;;;;;;4.07;3.00;;;;;;;;;;6151774;28;20043;-65
2021/06/06 05:59:20;;;;;;;4.68;3.10;;;;;;;;;;6154501;28;20043;-66
2021/06/06 06:02:21;;;;;;;4.40;2.80;;;;;;;;;;6156551;28;20066;-66
2021/06/06 06:05:22;;;;;;;4.28;2.90;;;;;;;;;;6155364;28;20387;-65
2021/06/06 06:08:27;;;;;;;5.10;3.28;;;;;;;;;;6155952;28;20054;-65
2021/06/06 06:11:28;;;;;;;3.53;2.97;;;;;;;;;;6155550;28;20039;-66
2021/06/06 06:14:29;;;;;;;6.93;3.33;;;;;;;;;;6155763;28;20057;-65
2021/06/06 06:17:30;;;;;;;2.92;2.50;;;;;;;;;;6155920;28;20082;-65
2021/06/06 06:20:31;;;;;;;4.65;3.28;;;;;;;;;;6155681;28;20051;-65
2021/06/06 06:23:34;;;;;;;7.03;2.83;;;;;;;;;;6157861;28;20435;-65
2021/06/06 06:26:35;;;;;;;6.30;3.15;;;;;;;;;;6179169;28;20074;-65
2021/06/06 06:29:36;;;;;;;7.13;2.80;;;;;;;;;;6178893;28;20406;-66
2021/06/06 06:32:38;;;;;;;5.95;2.80;;;;;;;;;;6179164;28;20046;-65
2021/06/06 06:35:39;;;;;;;6.60;3.20;;;;;;;;;;6179305;28;20130;-66
2021/06/06 06:38:42;;;;;;;5.07;3.10;;;;;;;;;;6169154;28;20142;-65
2021/06/06 06:41:43;;;;;;;3.85;3.05;;;;;;;;;;6168413;28;20077;-65
2021/06/06 06:44:44;;;;;;;6.78;2.75;;;;;;;;;;6178585;28;20054;-66
2021/06/06 06:47:45;;;;;;;4.35;2.80;;;;;;;;;;6179994;28;20046;-65
2021/06/06 06:50:47;;;;;;;5.40;3.38;;;;;;;;;;6178163;28;20055;-65
2021/06/06 06:53:54;;;;;;;5.97;2.83;;;;;;;;;;6178788;28;20050;-65
2021/06/06 06:56:55;;;;;;;6.68;3.10;;;;;;;;;;6178670;28;20047;-65
2021/06/06 06:59:56;;;;;;;3.85;3.15;;;;;;;;;;6179005;28;20075;-65
2021/06/06 07:02:57;;;;;;;6.18;3.45;;;;;;;;;;6178530;28;20490;-65
2021/06/06 07:06:00;;;;;;;7.13;3.45;;;;;;;;;;6178609;28;20050;-66
2021/06/06 07:09:02;;;;;;;6.37;3.20;;;;;;;;;;6178546;28;20170;-64
2021/06/06 07:12:04;;;;;;;4.47;2.65;;;;;;;;;;6178605;28;20075;-66
2021/06/06 07:15:07;;;;;;;3.97;2.70;;;;;;;;;;6161555;28;20081;-65
2021/06/06 07:18:10;;;;;;;6.68;3.10;;;;;;;;;;6178783;28;20075;-66
2021/06/06 07:21:13;;;;;;;4.97;2.58;;;;;;;;;;6178134;28;20043;-66
2021/06/06 07:24:16;;;;;;;4.97;2.70;;;;;;;;;;6178345;28;20105;-66
2021/06/06 07:27:17;;;;;;;4.63;2.80;;;;;;;;;;6178098;28;20054;-66
2021/06/06 07:30:22;;;;;;;5.70;2.75;;;;;;;;;;6177822;28;20418;-66
2021/06/06 07:33:25;;;;;;;4.28;2.63;;;;;;;;;;6177716;28;20049;-66
2021/06/06 07:36:26;;;;;;;10.07;2.78;;;;;;;;;;6178480;28;20062;-67
2021/06/06 07:39:29;;;;;;;4.43;2.60;;;;;;;;;;6176644;28;20496;-66
2021/06/06 07:42:30;;;;;;;4.03;2.78;;;;;;;;;;6178081;28;20106;-67
2021/06/06 07:45:31;;;;;;;5.88;2.50;;;;;;;;;;6178212;28;20051;-65
2021/06/06 07:48:33;;;;;;;4.47;2.72;;;;;;;;;;6178062;28;20050;-68
2021/06/06 07:51:35;;;;;;;3.50;2.85;;;;;;;;;;6178090;28;20105;-65
2021/06/06 07:54:37;;;;;;;3.92;3.20;;;;;;;;;;6177912;28;20050;-65
2021/06/06 07:57:39;;;;;;;3.83;2.80;;;;;;;;;;6177283;28;20042;-66
2021/06/06 08:00:42;;;;;;;5.93;3.30;;;;;;;;;;6177645;28;20055;-65
2021/06/06 08:03:43;;;;;;;9.55;3.20;;;;;;;;;;6177292;28;20074;-66
2021/06/06 08:06:44;;;;;;;5.75;2.58;;;;;;;;;;6176920;28;20102;-65
2021/06/06 08:09:47;;;;;;;4.13;2.80;;;;;;;;;;6176798;28;20467;-66
2021/06/06 08:12:48;;;;;;;6.47;3.30;;;;;;;;;;6177036;28;20163;-66
2021/06/06 08:15:49;;;;;;;5.75;3.72;;;;;;;;;;6176798;28;20074;-66
2021/06/06 08:18:50;;;;;;;5.25;2.60;;;;;;;;;;6176383;28;20134;-66
2021/06/06 08:21:52;;;;;;;5.00;3.00;;;;;;;;;;6175805;28;20112;-65
2021/06/06 08:24:54;;;;;;;6.32;3.00;;;;;;;;;;6176906;28;20082;-67
2021/06/06 08:27:55;;;;;;;6.77;3.20;;;;;;;;;;6176295;28;20537;-66
2021/06/06 08:30:58;;;;;;;8.00;3.50;;;;;;;;;;6176228;28;20470;-67
2021/06/06 08:33:59;;;;;;;8.00;4.03;;;;;;;;;;6175735;28;20471;-66
2021/06/06 08:37:02;;;;;;;5.43;2.72;;;;;;;;;;6176281;28;20074;-67
2021/06/06 08:40:07;;;;;;;3.73;2.60;;;;;;;;;;6176693;28;20078;-66
2021/06/06 08:43:08;;;;;;;4.43;2.53;;;;;;;;;;6176283;28;20488;-67
2021/06/06 08:46:11;;;;;;;3.92;2.28;;;;;;;;;;6176455;28;20075;-66
2021/06/06 08:49:12;;;;;;;;;;;;;;;;;;6176096;28;20054;-66
2021/06/06 08:52:23;;;;;;;6.68;2.67;;;;;;;;;;6176046;28;20313;-65
2021/06/06 08:55:41;;;;;;;6.10;2.88;;;;;;;;;;6175213;28;20140;-66
2021/06/06 08:58:46;;;;;;;3.83;2.90;;;;;;;;;;6175921;28;20394;-67
2021/06/06 09:01:53;;;;;;;4.30;2.80;;;;;;;;;;6175112;28;20109;-66
2021/06/06 09:04:54;;;;;;;5.03;3.40;;;;;;;;;;6175587;28;20090;-67
2021/06/06 09:07:56;;;;;;;3.33;2.58;;;;;;;;;;6172626;28;20062;-66
2021/06/06 09:11:04;;;;;;;5.10;2.95;;;;;;;;;;6174611;28;20409;-67
2021/06/06 09:14:05;;;;;;;6.45;2.92;;;;;;;;;;6175469;28;20057;-66
2021/06/06 09:17:08;;;;;;;7.03;3.33;;;;;;;;;;6174762;28;20047;-66
2021/06/06 09:20:24;;;;;;;4.70;3.20;;;;;;;;;;6175025;28;20379;-67
2021/06/06 09:23:27;;;;;;;6.18;3.50;;;;;;;;;;6174651;28;20066;-66
2021/06/06 09:26:30;;;;;;;4.43;2.88;;;;;;;;;;6175337;28;20344;-66
2021/06/06 09:29:31;;;;;;;5.35;3.55;;;;;;;;;;6174771;28;20564;-66
2021/06/06 09:32:33;;;;;;;4.68;3.00;;;;;;;;;;6174868;28;20078;-66
2021/06/06 09:35:36;;;;;;;6.65;3.40;;;;;;;;;;6173903;28;20042;-66
2021/06/06 09:38:40;;;;;;;6.30;3.00;;;;;;;;;;6174627;28;20066;-66
2021/06/06 09:41:45;;;;;;;4.70;2.90;;;;;;;;;;6174937;28;20074;-65
2021/06/06 09:44:46;;;;;;;5.50;3.08;;;;;;;;;;6174865;28;20054;-67
2021/06/06 09:48:07;;;;;;;10.23;3.28;;;;;;;;;;6174440;28;20082;-66
2021/06/06 09:51:13;;;;;;;7.40;3.13;;;;;;;;;;6174369;28;20043;-66
2021/06/06 09:54:16;;;;;;;3.90;2.95;;;;;;;;;;6174825;28;20082;-67
2021/06/06 09:57:24;;;;;;;4.78;2.90;;;;;;;;;;6173741;28;20047;-66
2021/06/06 10:00:37;;;;;;;4.50;2.80;;;;;;;;;;6174403;28;20097;-67
2021/06/06 10:03:41;;;;;;;5.55;3.35;;;;;;;;;;6174345;28;20069;-66
2021/06/06 10:06:43;;;;;;;4.60;2.60;;;;;;;;;;6174375;28;20082;-66
2021/06/06 10:09:49;;;;;;;5.53;2.80;;;;;;;;;;6174265;28;20078;-67
2021/06/06 10:12:54;;;;;;;4.03;2.75;;;;;;;;;;6174663;28;20086;-66
2021/06/06 10:15:59;;;;;;;6.28;2.83;;;;;;;;;;6174248;28;20083;-65
2021/06/06 10:19:05;;;;;;;5.90;3.60;;;;;;;;;;6174191;28;20082;-67
2021/06/06 10:22:09;;;;;;;4.00;2.72;;;;;;;;;;6175099;28;20051;-67
2021/06/06 10:25:16;;;;;;;3.67;2.30;;;;;;;;;;6174166;28;20110;-66
2021/06/06 10:28:23;;;;;;;4.45;2.80;;;;;;;;;;6174747;28;20133;-66
2021/06/06 10:31:29;;;;;;;8.45;2.70;;;;;;;;;;6174116;28;20114;-66
2021/06/06 10:34:34;;;;;;;3.78;2.10;;;;;;;;;;6174700;28;20058;-65
2021/06/06 10:37:35;;;;;;;3.22;2.10;;;;;;;;;;6169499;28;20096;-66
2021/06/06 10:40:41;;;;;;;5.47;2.08;;;;;;;;;;6184716;28;20043;-67
2021/06/06 10:43:49;;;;;;;4.43;1.92;;;;;;;;;;6175107;28;20054;-67
2021/06/06 10:46:52;;;;;;;3.80;1.83;;;;;;;;;;6178778;28;20390;-65
2021/06/06 10:49:56;;;;;;;5.13;1.98;;;;;;;;;;6178408;28;20055;-67
2021/06/06 10:53:13;;;;;;;3.95;1.80;;;;;;;;;;6178338;28;20050;-66
2021/06/06 10:56:15;;;;;;;4.18;2.15;;;;;;;;;;6179418;28;20050;-66
2021/06/06 10:59:28;;;;;;;2.92;1.75;;;;;;;;;;6179130;28;20077;-66
2021/06/06 11:02:31;;;;;;;4.53;2.40;;;;;;;;;;6179665;28;20137;-65
2021/06/06 11:05:44;;;;;;;3.80;2.35;;;;;;;;;;6178650;28;20055;-66
2021/06/06 11:08:46;;;;;;;2.33;2.13;;;;;;;;;;6180194;28;20047;-67
2021/06/06 11:11:56;;;;;;;3.35;2.03;;;;;;;;;;6179036;28;20498;-67
2021/06/06 11:15:00;;;;;;;6.47;2.00;;;;;;;;;;6178974;28;20364;-68
2021/06/06 11:18:10;;;;;;;5.47;2.10;;;;;;;;;;6179201;28;20063;-66
2021/06/06 11:21:11;;;;;;;6.32;3.28;;;;;;;;;;6178521;28;20062;-67
2021/06/06 11:24:32;;;;;;;4.00;2.20;;;;;;;;;;6179102;28;20073;-67
2021/06/06 11:27:36;;;;;;;3.53;2.33;;;;;;;;;;6179125;28;20501;-67
2021/06/06 11:30:41;;;;;;;4.63;2.45;;;;;;;;;;6178837;28;20475;-66
2021/06/06 11:33:46;;;;;;;4.50;2.28;;;;;;;;;;6177823;28;20046;-66
2021/06/06 11:36:48;;;;;;;4.80;2.42;;;;;;;;;;6177694;28;20047;-66
2021/06/06 11:39:49;;;;;;;3.70;1.80;;;;;;;;;;6177677;28;20149;-65
2021/06/06 11:42:51;;;;;;;3.30;1.90;;;;;;;;;;6177933;28;20055;-66
2021/06/06 11:45:55;;;;;;;2.90;1.80;;;;;;;;;;6177701;28;20510;-66
2021/06/06 11:49:01;;;;;;;3.22;1.80;;;;;;;;;;6177410;28;20373;-67
2021/06/06 11:52:08;;;;;;;4.20;2.00;;;;;;;;;;6167030;28;20507;-66
2021/06/06 11:55:14;;;;;;;4.70;2.10;;;;;;;;;;6177112;28;20088;-67
2021/06/06 11:58:20;;;;;;;2.38;1.98;;;;;;;;;;6177792;28;20051;-66
2021/06/06 12:01:25;;;;;;;2.95;2.05;;;;;;;;;;6177174;28;20043;-67
2021/06/06 12:04:29;;;;;;;4.82;2.08;;;;;;;;;;6174904;28;20479;-67
2021/06/06 12:07:31;;;;;;;6.15;2.08;;;;;;;;;;6176734;28;20078;-68
2021/06/06 12:10:35;;;;;;;5.30;2.17;;;;;;;;;;6177675;28;20057;-67
2021/06/06 12:13:39;;;;;;;3.17;2.00;;;;;;;;;;6167751;28;20050;-68
2021/06/06 12:16:47;;;;;;;3.75;2.10;;;;;;;;;;6187397;28;20406;-67
2021/06/06 12:19:51;;;;;;;3.35;1.90;;;;;;;;;;6176962;28;20070;-68
2021/06/06 12:23:07;;;;;;;5.00;2.15;;;;;;;;;;6177093;28;20430;-67
2021/06/06 12:26:10;;;;;;;4.00;1.90;;;;;;;;;;6176802;28;20419;-68
2021/06/06 12:29:11;;;;;;;3.45;1.90;;;;;;;;;;6176412;28;20470;-68
2021/06/06 12:32:21;;;;;;;2.92;1.85;;;;;;;;;;6177384;28;20043;-67
2021/06/06 12:35:26;;;;;;;3.33;1.88;;;;;;;;;;6176316;28;20102;-67
2021/06/06 12:38:28;;;;;;;3.15;2.10;;;;;;;;;;6174158;28;20053;-67
2021/06/06 12:41:29;;;;;;;;;;;;;;;;;;6177155;28;20474;-67
2021/06/06 12:44:34;;;;;;;4.13;2.42;;;;;;;;;;6177431;28;19968;-67
2021/06/06 12:47:39;;;;;;;5.28;2.60;;;;;;;;;;6175852;28;20061;-66
2021/06/06 12:50:41;;;;;;;3.80;2.35;;;;;;;;;;6175871;28;20047;-67
2021/06/06 12:53:44;;;;;;;2.72;2.00;;;;;;;;;;6175976;28;20070;-73
2021/06/06 12:56:46;;;;;;;5.30;2.30;;;;;;;;;;6176309;28;20047;-75
2021/06/06 12:59:48;;;;;;;2.65;2.03;;;;;;;;;;6175757;28;20062;-73
2021/06/06 13:02:51;;;;;;;5.30;2.30;;;;;;;;;;6175929;28;20067;-74
2021/06/06 13:05:54;;;;;;;8.45;2.38;;;;;;;;;;6175528;28;20106;-67
2021/06/06 13:09:14;;;;;;;4.10;2.20;;;;;;;;;;6175408;28;20434;-67
2021/06/06 13:12:22;;;;;;;3.67;2.00;;;;;;;;;;6174375;28;20530;-67
2021/06/06 13:15:35;;;;;;;6.70;2.20;;;;;;;;;;6180308;28;20470;-67
2021/06/06 13:18:38;;;;;;;3.20;2.13;;;;;;;;;;6174967;28;20502;-70
2021/06/06 13:21:42;;;;;;;1997.82;171.35;;;;;;;;;;6176013;28;20097;-71
2021/06/06 13:24:44;;;;;;;7.95;2.30;;;;;;;;;;6175401;28;20499;-71
2021/06/06 13:27:46;;;;;;;;;;;;;;;;;;6176601;28;20074;-70
2021/06/06 13:30:48;;;;;;;4.32;2.72;;;;;;;;;;6176272;28;19976;-74
2021/06/06 13:33:51;;;;;;;6.75;2.00;;;;;;;;;;6175277;28;20047;-73
2021/06/06 13:36:52;;;;;;;6.88;2.60;;;;;;;;;;6176624;28;20054;-75
2021/06/06 13:39:54;;;;;;;13.70;3.17;;;;;;;;;;6175034;28;20070;-73
2021/06/06 13:42:57;;;;;;;9.90;2.92;;;;;;;;;;6200359;28;20540;-71
2021/06/06 13:45:58;;;;;;;2.72;2.30;;;;;;;;;;6199243;28;20042;-71
2021/06/06 13:49:01;;;;;;;4.47;2.50;;;;;;;;;;6200518;28;20148;-70
2021/06/06 13:52:03;;;;;;;;;;;;;;;;;;6201067;28;20104;-68
2021/06/06 13:55:07;;;;;;;2.60;2.20;;;;;;;;;;6199224;28;19922;-68
2021/06/06 13:58:09;;;;;;;4.72;2.17;;;;;;;;;;6199252;28;20053;-68
2021/06/06 14:01:10;;;;;;;3.28;1.80;;;;;;;;;;6199017;28;20054;-68
2021/06/06 14:04:13;;;;;;;3.75;1.92;;;;;;;;;;6199026;28;20146;-72
2021/06/06 14:07:15;;;;;;;15.45;3.38;;;;;;;;;;6183876;28;20058;-67
2021/06/06 14:10:19;;;;;;;2.88;1.67;;;;;;;;;;6198308;28;20454;-72
2021/06/06 14:13:27;;;;;;;41.03;5.47;;;;;;;;;;6198376;28;20054;-70
2021/06/06 14:16:29;;;;;;;3.83;2.05;;;;;;;;;;6198793;28;20081;-69
2021/06/06 14:19:33;;;;;;;;;;;;;;;;;;6200877;28;20161;-69
2021/06/06 14:22:34;;;;;;;7.00;2.22;;;;;;;;;;6194199;28;19922;-67
2021/06/06 14:25:36;;;;;;;7.20;2.08;;;;;;;;;;6202071;28;20529;-68
2021/06/06 14:28:37;;;;;;;7.05;1.80;;;;;;;;;;6202893;28;20058;-67
2021/06/06 14:31:39;;;;;;;4.97;2.42;;;;;;;;;;6202903;28;20054;-68
2021/06/06 14:34:42;;;;;;;6.38;2.00;;;;;;;;;;6199268;28;20050;-69
2021/06/06 14:37:44;;;;;;;3.83;1.52;;;;;;;;;;6202240;28;20133;-71
2021/06/06 14:40:45;;;;;;;3.35;1.73;;;;;;;;;;6202929;28;20042;-70
2021/06/06 14:43:47;;;;;;;4.32;1.67;;;;;;;;;;6202805;28;20386;-71
2021/06/06 14:46:48;;;;;;;4.35;2.17;;;;;;;;;;6203918;28;20069;-75
2021/06/06 14:49:51;;;;;;;7.80;2.45;;;;;;;;;;6203072;28;20100;-76
2021/06/06 14:52:55;;;;;;;81.00;6.60;;;;;;;;;;6202401;28;20529;-72
2021/06/06 14:55:58;;;;;;;7.40;1.85;;;;;;;;;;6202108;28;20060;-74
2021/06/06 14:59:00;;;;;;;392.73;33.03;;;;;;;;;;6201932;28;20414;-70
2021/06/06 15:02:01;;;;;;;12.60;2.97;;;;;;;;;;6202038;28;20058;-69
2021/06/06 15:05:06;;;;;;;9.60;4.00;;;;;;;;;;6201451;28;20492;-70
2021/06/06 15:08:09;;;;;;;5.40;3.67;;;;;;;;;;6202044;28;20077;-71
2021/06/06 15:11:11;;;;;;;4.60;2.72;;;;;;;;;;6202769;28;20054;-73
2021/06/06 15:14:12;;;;;;;4.33;2.50;;;;;;;;;;6201566;28;20077;-71
2021/06/06 15:17:13;;;;;;;7.00;2.40;;;;;;;;;;6201542;28;20050;-71
2021/06/06 15:20:21;;;;;;;4.25;2.28;;;;;;;;;;6202174;28;20120;-74
2021/06/06 15:23:25;;;;;;;4.65;1.60;;;;;;;;;;6201919;28;20107;-71
2021/06/06 15:26:28;;;;;;;2.78;2.00;;;;;;;;;;6201747;28;20439;-71
2021/06/06 15:29:29;;;;;;;3.15;1.95;;;;;;;;;;6201713;28;20066;-71
2021/06/06 15:32:30;;;;;;;3.83;2.15;;;;;;;;;;6202135;28;20062;-74
2021/06/06 15:35:33;;;;;;;5.00;1.70;;;;;;;;;;6202099;28;20110;-74
2021/06/06 15:38:37;;;;;;;5.40;2.00;;;;;;;;;;6201223;28;20051;-74
2021/06/06 15:41:40;;;;;;;6.53;2.70;;;;;;;;;;6200593;28;20106;-75
2021/06/06 15:44:41;;;;;;;5.25;2.05;;;;;;;;;;6200902;28;20062;-75
2021/06/06 15:47:43;;;;;;;3.03;1.83;;;;;;;;;;6199865;28;20047;-74
2021/06/06 15:50:45;;;;;;;6.05;2.20;;;;;;;;;;6200919;28;20058;-74
2021/06/06 15:53:46;;;;;;;3.95;1.90;;;;;;;;;;6200018;28;20456;-75
2021/06/06 15:56:48;;;;;;;4.20;1.85;;;;;;;;;;6200969;28;20049;-75
2021/06/06 15:59:49;;;;;;;3.38;2.00;;;;;;;;;;6199249;28;20046;-75
2021/06/06 16:02:54;;;;;;;5.05;2.30;;;;;;;;;;6200929;28;20054;-75
2021/06/06 16:05:58;;;;;;;2.78;1.80;;;;;;;;;;6182752;28;20427;-74
2021/06/06 16:08:59;;;;;;;5.07;1.92;;;;;;;;;;6175950;28;20047;-73
2021/06/06 16:12:07;;;;;;;6.07;2.33;;;;;;;;;;6175381;28;20051;-74
2021/06/06 16:15:10;;;;;;;5.03;2.25;;;;;;;;;;6175686;28;20541;-75
2021/06/06 16:18:11;;;;;;;5.22;1.75;;;;;;;;;;6172265;28;20051;-74
2021/06/06 16:21:15;;;;;;;2.58;2.03;;;;;;;;;;6176714;28;20439;-74
2021/06/06 16:24:17;;;;;;;4.55;1.77;;;;;;;;;;6175588;28;20049;-74
2021/06/06 16:27:18;;;;;;;2.38;1.60;;;;;;;;;;6175651;28;20451;-75
2021/06/06 16:30:23;;;;;;;3.28;1.70;;;;;;;;;;6176387;28;20094;-75
2021/06/06 16:33:25;;;;;;;6.80;2.20;;;;;;;;;;6175844;28;20055;-75
2021/06/06 16:36:29;;;;;;;4.03;2.10;;;;;;;;;;6176036;28;20078;-74
2021/06/06 16:39:30;;;;;;;6.25;2.40;;;;;;;;;;6175678;28;20050;-75
2021/06/06 16:42:31;;;;;;;5.75;2.20;;;;;;;;;;6170272;28;20046;-75
2021/06/06 16:45:35;;;;;;;5.70;2.40;;;;;;;;;;6174955;28;20073;-75
2021/06/06 16:48:37;;;;;;;5.07;2.70;;;;;;;;;;6175507;28;20070;-75
2021/06/06 16:51:39;;;;;;;4.43;2.33;;;;;;;;;;6174921;28;20074;-75
2021/06/06 16:54:40;;;;;;;3.00;2.38;;;;;;;;;;6175151;28;20074;-75
2021/06/06 16:57:42;;;;;;;4.00;2.10;;;;;;;;;;6175029;28;20046;-74
2021/06/06 17:00:45;;;;;;;5.40;2.65;;;;;;;;;;6171868;28;20505;-74
2021/06/06 17:03:47;;;;;;;5.75;2.30;;;;;;;;;;6167556;28;20101;-74
2021/06/06 17:06:50;;;;;;;3.77;1.93;;;;;;;;;;6186909;28;20059;-75
2021/06/06 17:09:51;;;;;;;8.68;3.53;;;;;;;;;;6174620;28;20047;-69
2021/06/06 17:12:53;;;;;;;5.72;3.25;;;;;;;;;;6174791;28;20051;-69
2021/06/06 17:15:56;;;;;;;11.88;2.83;;;;;;;;;;6174534;28;20046;-69
2021/06/06 17:18:57;;;;;;;11.18;3.35;;;;;;;;;;6175241;28;20070;-68
2021/06/06 17:22:00;;;;;;;8.35;2.80;;;;;;;;;;6180396;28;20042;-68
2021/06/06 17:25:01;;;;;;;6.38;2.47;;;;;;;;;;6175164;28;20528;-68
2021/06/06 17:28:08;;;;;;;5.47;2.38;;;;;;;;;;6172634;28;20129;-68
2021/06/06 17:34:39;;;;;;;4.40;1.83;;;;;;;;;;6175204;28;20070;-67
2021/06/06 17:37:42;;;;;;;7.00;2.15;;;;;;;;;;6174387;28;20113;-66
2021/06/06 17:40:43;;;;;;;5.38;2.40;;;;;;;;;;6175099;28;20148;-67
2021/06/06 17:43:44;;;;;;;10.02;2.42;;;;;;;;;;6174511;28;20043;-65
2021/06/06 17:46:47;;;;;;;8.43;2.22;;;;;;;;;;6174987;28;20051;-66
2021/06/06 17:49:48;;;;;;;7.22;1.85;;;;;;;;;;6174307;28;20067;-66
2021/06/06 17:52:53;;;;;;;6.68;2.08;;;;;;;;;;6174294;28;20074;-65
2021/06/06 17:55:56;;;;;;;4.15;1.85;;;;;;;;;;6178694;28;20479;-66
2021/06/06 17:58:57;;;;;;;2.65;1.35;;;;;;;;;;6180103;28;20181;-69
2021/06/06 18:01:58;;;;;;;4.75;1.63;;;;;;;;;;6179872;28;20225;-65
2021/06/06 18:04:59;;;;;;;4.45;1.55;;;;;;;;;;6177340;28;20062;-65
2021/06/06 18:08:04;;;;;;;2.78;1.55;;;;;;;;;;6179746;28;20086;-65
2021/06/06 18:11:06;;;;;;;2.83;1.17;;;;;;;;;;6179406;28;20058;-64
2021/06/06 18:14:09;;;;;;;3.95;1.50;;;;;;;;;;6179394;28;20081;-64
2021/06/06 18:17:10;;;;;;;3.33;1.17;;;;;;;;;;6179199;28;20521;-64
2021/06/06 18:20:14;;;;;;;2.85;1.35;;;;;;;;;;6178812;28;20483;-65
2021/06/06 18:23:18;;;;;;;2.00;1.08;;;;;;;;;;6179708;28;20105;-66
2021/06/06 18:26:19;;;;;;;;;;;;;;;;;;6179908;28;20059;-67
2021/06/06 18:29:20;;;;;;;2.42;1.30;;;;;;;;;;6179429;28;19929;-64
2021/06/06 18:32:22;;;;;;;2.90;1.23;;;;;;;;;;6179114;28;20043;-65
2021/06/06 18:35:23;;;;;;;7.88;2.80;;;;;;;;;;6179347;28;20051;-64
2021/06/06 18:38:26;;;;;;;5.20;1.55;;;;;;;;;;6178564;28;20506;-66
2021/06/06 18:41:28;;;;;;;3.67;1.70;;;;;;;;;;6179661;28;20423;-69
2021/06/06 18:44:33;;;;;;;5.93;2.30;;;;;;;;;;6179540;28;20125;-65
2021/06/06 18:47:34;;;;;;;4.25;2.55;;;;;;;;;;6167530;28;20078;-67
2021/06/06 18:50:36;;;;;;;4.80;2.60;;;;;;;;;;6192965;28;20126;-64
2021/06/06 18:53:40;;;;;;;6.63;2.50;;;;;;;;;;6178871;28;20138;-66
2021/06/06 18:56:42;;;;;;;;;;;;;;;;;;6179171;28;20478;-65
2021/06/06 18:59:43;;;;;;;5.93;2.83;;;;;;;;;;6177770;28;19926;-65
2021/06/06 19:02:44;;;;;;;6.70;3.13;;;;;;;;;;6178925;28;20043;-66
2021/06/06 19:05:46;;;;;;;10.05;3.53;;;;;;;;;;6175069;28;20326;-66
2021/06/06 19:08:49;;;;;;;11.57;4.47;;;;;;;;;;6179011;28;20058;-67
2021/06/06 19:11:52;;;;;;;16.87;5.53;;;;;;;;;;6178420;28;20051;-67
2021/06/06 19:14:54;;;;;;;17.92;6.03;;;;;;;;;;6178220;28;20458;-66
2021/06/06 19:17:55;;;;;;;22.75;7.32;;;;;;;;;;6178033;28;20053;-67
2021/06/06 19:20:57;;;;;;;17.17;6.18;;;;;;;;;;6179068;28;20046;-66
2021/06/06 19:24:00;;;;;;;12.27;6.40;;;;;;;;;;6178325;28;20066;-66
2021/06/06 19:27:01;;;;;;;17.23;7.45;;;;;;;;;;6170593;28;20550;-69
2021/06/06 19:30:10;;;;;;;10.63;6.93;;;;;;;;;;6178654;28;20124;-65
2021/06/06 19:33:13;;;;;;;9.65;6.78;;;;;;;;;;6170015;28;20042;-66
2021/06/06 19:36:14;;;;;;;12.85;6.82;;;;;;;;;;6181264;28;20110;-68
2021/06/06 19:39:17;;;;;;;11.10;7.53;;;;;;;;;;6178207;28;20049;-71
2021/06/06 19:42:20;;;;;;;9.55;6.97;;;;;;;;;;6178496;28;20098;-64
2021/06/06 19:45:22;;;;;;;;;;;;;;;;;;6178550;28;20481;-66
2021/06/06 19:48:23;;;;;;;13.20;7.68;;;;;;;;;;6177761;28;19961;-67
2021/06/06 19:51:26;;;;;;;18.55;9.02;;;;;;;;;;6167696;28;20113;-70
2021/06/06 19:54:28;;;;;;;13.13;9.50;;;;;;;;;;6172700;28;20518;-69
2021/06/06 19:57:31;;;;;;;13.27;9.98;;;;;;;;;;6177494;28;20082;-67
2021/06/06 20:00:35;;;;;;;15.40;9.68;;;;;;;;;;6177190;28;20050;-66
2021/06/06 20:03:38;;;;;;;12.90;10.10;;;;;;;;;;6177237;28;20047;-67
2021/06/06 20:06:39;;;;;;;11.98;8.43;;;;;;;;;;6177452;28;20043;-66
2021/06/06 20:09:42;;;;;;;12.07;10.80;;;;;;;;;;6177107;28;20402;-67
2021/06/06 20:12:43;;;;;;;17.20;10.57;;;;;;;;;;6177514;28;20130;-67
2021/06/06 20:15:45;;;;;;;12.95;10.05;;;;;;;;;;6176802;28;20047;-67
2021/06/06 20:18:47;;;;;;;13.35;9.68;;;;;;;;;;6176159;28;20074;-67
2021/06/06 20:21:53;;;;;;;12.23;10.43;;;;;;;;;;6172736;28;20074;-67
2021/06/06 20:24:58;;;;;;;13.27;10.13;;;;;;;;;;6176868;28;20479;-67
2021/06/06 20:27:59;;;;;;;13.15;10.50;;;;;;;;;;6176751;28;20046;-67
2021/06/06 20:31:06;;;;;;;12.45;10.15;;;;;;;;;;6176692;28;20505;-66
2021/06/06 20:34:14;;;;;;;13.80;10.85;;;;;;;;;;6176650;28;20410;-66
2021/06/06 20:37:19;;;;;;;14.50;11.40;;;;;;;;;;6177124;28;20055;-67
2021/06/06 20:40:22;;;;;;;14.55;10.90;;;;;;;;;;6176395;28;20453;-66
2021/06/06 20:43:23;;;;;;;11.40;9.38;;;;;;;;;;6176460;28;20050;-67
2021/06/06 20:46:25;;;;;;;13.73;10.80;;;;;;;;;;6176841;28;20098;-68
2021/06/06 20:49:26;;;;;;;12.93;9.50;;;;;;;;;;6176819;28;20070;-68
2021/06/06 20:52:28;;;;;;;12.13;10.85;;;;;;;;;;6176702;28;20039;-68
2021/06/06 20:55:31;;;;;;;13.45;10.68;;;;;;;;;;6176220;28;20082;-68
2021/06/06 20:58:33;;;;;;;13.57;11.07;;;;;;;;;;6176306;28;20151;-69
2021/06/06 21:01:34;;;;;;;11.95;9.65;;;;;;;;;;6176137;28;20109;-70
2021/06/06 21:04:35;;;;;;;11.07;7.95;;;;;;;;;;6175338;28;20050;-71
2021/06/06 21:07:36;;;;;;;10.57;8.63;;;;;;;;;;6128246;28;20079;-68
2021/06/06 21:10:39;;;;;;;10.02;8.52;;;;;;;;;;6128920;28;20075;-67
2021/06/06 21:13:42;;;;;;;10.13;9.13;;;;;;;;;;6127573;28;20048;-69
2021/06/06 21:16:43;;;;;;;11.15;7.72;;;;;;;;;;6128247;28;20087;-68
2021/06/06 21:19:44;;;;;;;10.48;8.70;;;;;;;;;;6127065;28;20512;-69
2021/06/06 21:22:45;;;;;;;10.07;9.07;;;;;;;;;;6128070;29;20126;-67
2021/06/06 21:25:50;;;;;;;9.25;8.05;;;;;;;;;;6127971;28;20076;-67
2021/06/06 21:28:55;;;;;;;11.20;8.40;;;;;;;;;;6128696;28;20048;-67
2021/06/06 21:31:57;;;;;;;8.00;7.20;;;;;;;;;;6127884;28;20079;-68
2021/06/06 21:34:58;;;;;;;9.88;7.30;;;;;;;;;;6127946;28;20056;-68
2021/06/06 21:37:59;;;;;;;11.43;8.00;;;;;;;;;;6127705;28;20086;-68